Time;durP1;ratioP1;P1;durP2;ratioP2;P2;SDS_P1;SDS_P2;PMS_P1;PMS_P2;Temp;Humidity;BMP_temperature;BMP_pressure;BME280_temperature;BME280_humidity;BME280_pressure;Samples;Min_cycle;Max_cycle;Signal;HPM_P1;HPM_P2
2022/12/22 03:27:32;;;;;;;10.87;6.50;;;3.60;99.90;;;;;;5038169;28;20036;-73
2022/12/22 03:29:58;;;;;;;14.05;8.60;;;3.80;99.90;;;;;;5033938;28;20026;-73
2022/12/22 03:32:24;;;;;;;18.17;11.20;;;3.90;99.90;;;;;;5035250;28;20041;-73
2022/12/22 03:34:49;;;;;;;17.15;10.30;;;3.60;99.90;;;;;;5046135;28;20104;-73
2022/12/22 03:37:15;;;;;;;15.35;8.68;;;3.50;99.90;;;;;;5029333;28;20029;-73
2022/12/22 03:39:40;;;;;;;10.60;6.00;;;3.50;99.90;;;;;;5031936;28;20041;-73
2022/12/22 03:47:38;;;;;;;17.52;7.95;;;4.20;99.90;;;;;;5035681;28;20060;-73
2022/12/22 03:50:04;;;;;;;12.73;7.65;;;4.10;99.90;;;;;;5031910;28;20033;-73
2022/12/22 03:52:29;;;;;;;11.18;6.80;;;3.90;99.90;;;;;;5041446;28;20040;-73
2022/12/22 03:54:55;;;;;;;13.02;7.10;;;3.80;99.90;;;;;;5039425;28;20390;-73
2022/12/22 03:57:21;;;;;;;11.95;6.68;;;3.90;99.90;;;;;;5037772;28;20033;-73
2022/12/22 03:59:46;;;;;;;11.48;6.90;;;4.00;99.90;;;;;;5038583;28;20039;-73
2022/12/22 04:02:12;;;;;;;12.18;6.13;;;4.00;99.90;;;;;;5033948;28;20025;-72
2022/12/22 04:04:37;;;;;;;11.57;6.43;;;4.00;99.90;;;;;;5032768;28;20025;-72
2022/12/22 04:07:03;;;;;;;11.38;6.18;;;4.10;99.90;;;;;;5030126;28;20037;-72
2022/12/22 04:09:29;;;;;;;15.23;6.28;;;4.00;99.90;;;;;;5029874;28;20402;-72
2022/12/22 04:14:38;;;;;;;14.63;8.88;;;3.70;99.90;;;;;;5029266;28;20109;-72
2022/12/22 04:17:06;;;;;;;16.48;8.38;;;3.50;99.90;;;;;;5023968;28;20329;-72
2022/12/22 04:19:32;;;;;;;15.35;7.72;;;3.60;99.90;;;;;;5025076;28;20036;-72
2022/12/22 04:21:58;;;;;;;11.00;6.40;;;3.70;99.90;;;;;;5023441;28;20064;-72
2022/12/22 04:24:23;;;;;;;16.33;6.55;;;3.80;99.90;;;;;;5029987;28;20060;-72
2022/12/22 04:26:49;;;;;;;14.95;6.45;;;3.80;99.90;;;;;;5032476;28;20034;-72
2022/12/22 04:29:15;;;;;;;12.10;6.32;;;3.70;99.90;;;;;;5038615;28;20036;-72
2022/12/22 04:31:41;;;;;;;13.25;6.60;;;3.90;99.90;;;;;;5029980;28;20383;-72
2022/12/22 04:34:06;;;;;;;13.68;6.60;;;4.00;99.90;;;;;;5039429;28;20131;-72
2022/12/22 04:36:32;;;;;;;12.73;6.68;;;4.10;99.90;;;;;;5035927;28;20035;-72
2022/12/22 04:38:58;;;;;;;10.57;6.38;;;4.10;99.90;;;;;;5025645;28;20862;-72
2022/12/22 04:41:23;;;;;;;13.50;6.97;;;4.20;99.90;;;;;;5037565;28;20486;-72
2022/12/22 04:43:49;;;;;;;15.40;7.43;;;4.00;99.90;;;;;;5025708;28;20029;-72
2022/12/22 04:46:15;;;;;;;12.75;7.20;;;4.10;99.90;;;;;;5029974;28;20024;-72
2022/12/22 04:48:40;;;;;;;11.38;6.50;;;4.10;99.90;;;;;;5040095;28;20056;-73
2022/12/22 04:51:06;;;;;;;12.57;5.90;;;4.10;99.90;;;;;;5026662;28;20035;-72
2022/12/22 04:53:32;;;;;;;16.25;7.90;;;4.00;99.90;;;;;;5027549;28;20040;-72
2022/12/22 04:56:04;;;;;;;13.30;7.40;;;4.00;99.90;;;;;;5034236;28;20025;-73
2022/12/22 04:58:30;;;;;;;11.45;6.20;;;4.00;99.90;;;;;;5025958;28;20389;-72
2022/12/22 05:00:56;;;;;;;14.07;6.28;;;4.10;99.90;;;;;;5029816;28;20029;-72
2022/12/22 05:03:22;;;;;;;10.30;5.18;;;4.00;99.90;;;;;;5030663;28;20033;-72
2022/12/22 05:05:49;;;;;;;10.35;4.88;;;4.10;99.90;;;;;;5027662;28;20151;-72
2022/12/22 05:08:14;;;;;;;9.40;5.68;;;4.10;99.90;;;;;;5031403;28;20495;-72
2022/12/22 05:10:40;;;;;;;12.73;6.20;;;4.10;99.90;;;;;;5027632;28;20108;-72
2022/12/22 05:13:06;;;;;;;10.75;5.90;;;4.10;99.90;;;;;;5026817;28;20080;-72
2022/12/22 05:15:35;;;;;;;9.73;5.05;;;4.10;99.90;;;;;;5031481;28;20036;-72
2022/12/22 05:18:01;;;;;;;10.60;6.28;;;4.00;99.90;;;;;;5023751;28;20025;-72
2022/12/22 05:20:28;;;;;;;13.68;6.50;;;4.10;99.90;;;;;;5028634;28;20064;-73
2022/12/22 05:22:54;;;;;;;10.38;5.47;;;4.10;99.90;;;;;;5034927;28;20428;-72
2022/12/22 05:25:20;;;;;;;15.73;9.38;;;4.20;99.90;;;;;;5032868;28;20040;-72
2022/12/22 05:27:47;;;;;;;19.15;9.40;;;4.10;99.90;;;;;;5026208;28;20451;-72
2022/12/22 05:30:14;;;;;;;26.13;14.18;;;3.80;99.90;;;;;;5027973;28;20337;-72
2022/12/22 05:32:40;;;;;;;19.27;9.95;;;3.50;99.90;;;;;;5030636;28;20060;-72
2022/12/22 05:35:07;;;;;;;13.77;7.82;;;3.40;99.90;;;;;;5031464;28;20964;-73
2022/12/22 05:37:33;;;;;;;12.23;7.13;;;3.40;99.90;;;;;;5026597;28;20399;-72
2022/12/22 05:39:59;;;;;;;10.23;6.55;;;3.70;99.90;;;;;;5033122;28;20026;-72
2022/12/22 05:42:37;;;;;;;12.60;6.82;;;3.80;99.90;;;;;;5030521;28;20156;-72
2022/12/22 05:45:05;;;;;;;13.35;7.20;;;3.90;99.90;;;;;;5033439;28;20032;-72
2022/12/22 05:47:31;;;;;;;12.68;8.32;;;4.00;99.90;;;;;;5025447;28;20045;-72
2022/12/22 05:49:57;;;;;;;14.63;8.38;;;3.90;99.90;;;;;;5031306;28;20040;-72
2022/12/22 05:52:23;;;;;;;16.17;8.70;;;3.60;99.90;;;;;;5029360;28;20041;-72
2022/12/22 05:54:48;;;;;;;10.65;6.43;;;3.60;99.90;;;;;;5022743;28;20123;-72
2022/12/22 05:57:14;;;;;;;14.00;6.10;;;3.70;99.90;;;;;;5036135;28;20036;-72
2022/12/22 05:59:40;;;;;;;9.65;5.28;;;3.80;99.90;;;;;;5035689;28;20036;-72
2022/12/22 06:02:05;;;;;;;13.68;7.35;;;4.10;99.90;;;;;;5025163;28;20077;-72
2022/12/22 06:04:31;;;;;;;23.42;11.07;;;4.00;99.90;;;;;;5035585;28;20040;-72
2022/12/22 06:06:56;;;;;;;22.05;12.95;;;3.50;99.90;;;;;;5031217;28;20029;-72
2022/12/22 06:09:22;;;;;;;16.10;11.55;;;3.40;99.90;;;;;;5028390;28;20068;-72
2022/12/22 06:11:48;;;;;;;15.40;9.45;;;3.40;99.90;;;;;;5030409;28;20517;-72
2022/12/22 06:14:13;;;;;;;20.88;10.57;;;3.40;99.90;;;;;;5030701;28;20025;-71
2022/12/22 06:16:39;;;;;;;20.80;12.35;;;3.30;99.90;;;;;;5032493;28;20025;-72
2022/12/22 06:19:04;;;;;;;25.98;17.45;;;3.40;99.90;;;;;;5027349;28;20108;-72
2022/12/22 06:21:30;;;;;;;15.32;9.52;;;3.50;99.90;;;;;;5037150;28;20478;-73
2022/12/22 06:23:56;;;;;;;15.88;9.10;;;3.40;99.90;;;;;;5027422;28;20033;-72
2022/12/22 06:26:21;;;;;;;21.77;12.80;;;3.60;99.90;;;;;;5031245;28;20044;-72
2022/12/22 06:28:47;;;;;;;20.17;9.63;;;3.50;99.90;;;;;;5038462;28;20082;-74
2022/12/22 06:31:13;;;;;;;14.02;9.57;;;3.50;99.90;;;;;;5029284;28;20025;-73
2022/12/22 06:33:38;;;;;;;15.50;8.30;;;3.50;99.90;;;;;;5028315;28;20059;-73
2022/12/22 06:36:06;;;;;;;15.40;9.40;;;3.70;99.90;;;;;;5027589;28;20099;-73
2022/12/22 06:38:32;;;;;;;15.50;8.15;;;3.70;99.90;;;;;;5024647;28;20038;-74
2022/12/22 06:40:58;;;;;;;13.60;8.45;;;3.70;99.90;;;;;;5029411;28;20026;-73
2022/12/22 06:43:24;;;;;;;20.45;9.68;;;3.80;99.90;;;;;;5030866;28;20142;-73
2022/12/22 06:45:50;;;;;;;19.73;10.95;;;3.70;99.90;;;;;;5038543;28;20127;-73
2022/12/22 06:48:16;;;;;;;19.27;9.75;;;3.60;99.90;;;;;;5029011;28;20694;-73
2022/12/22 06:50:42;;;;;;;16.90;9.32;;;3.50;99.90;;;;;;5027063;28;20384;-73
2022/12/22 06:53:08;;;;;;;17.02;9.60;;;3.50;99.90;;;;;;5027272;28;20129;-73
2022/12/22 06:55:34;;;;;;;12.48;7.72;;;3.50;99.90;;;;;;5029514;28;20029;-73
2022/12/22 06:58:01;;;;;;;18.20;10.68;;;3.50;99.90;;;;;;5035707;28;20037;-71
2022/12/22 07:00:26;;;;;;;15.93;9.57;;;3.70;99.90;;;;;;5032130;28;20087;-70
2022/12/22 07:02:52;;;;;;;12.40;8.50;;;3.60;99.90;;;;;;5032751;28;20100;-72
2022/12/22 07:05:17;;;;;;;13.32;7.25;;;3.60;99.90;;;;;;5024226;28;20032;-72
2022/12/22 07:07:43;;;;;;;14.13;6.25;;;3.70;99.90;;;;;;5030341;28;20044;-72
2022/12/22 07:10:09;;;;;;;11.70;6.38;;;3.80;99.90;;;;;;5035806;28;20044;-71
2022/12/22 07:12:35;;;;;;;11.93;7.68;;;3.90;99.90;;;;;;5023651;28;20164;-72
2022/12/22 07:15:01;;;;;;;12.95;6.78;;;3.90;99.90;;;;;;5034779;28;20033;-71
2022/12/22 07:17:27;;;;;;;11.43;7.32;;;3.80;99.90;;;;;;5022402;28;20033;-72
2022/12/22 07:19:52;;;;;;;15.75;7.35;;;3.80;99.90;;;;;;5029881;28;20034;-71
2022/12/22 07:22:18;;;;;;;19.73;8.77;;;3.70;99.90;;;;;;5024111;28;20034;-72
2022/12/22 07:24:44;;;;;;;16.83;8.02;;;3.70;99.90;;;;;;5029892;28;20025;-72
2022/12/22 07:27:09;;;;;;;12.43;7.15;;;3.80;99.90;;;;;;5030313;28;20090;-72
2022/12/22 07:29:35;;;;;;;13.38;7.53;;;3.80;99.90;;;;;;5032039;28;20090;-72
2022/12/22 07:32:01;;;;;;;11.10;7.00;;;3.70;99.90;;;;;;5036116;28;20036;-72
2022/12/22 07:34:27;;;;;;;14.52;7.90;;;3.70;99.90;;;;;;5037915;28;20498;-72
2022/12/22 07:36:53;;;;;;;12.93;7.78;;;3.80;99.90;;;;;;5030827;28;20029;-72
2022/12/22 07:39:18;;;;;;;15.20;7.50;;;3.70;99.90;;;;;;5027518;28;20033;-72
2022/12/22 07:44:28;;;;;;;19.23;9.83;;;3.70;99.90;;;;;;5021730;28;21311;-72
2022/12/22 07:46:54;;;;;;;24.50;10.52;;;3.70;99.90;;;;;;5031775;28;20045;-72
2022/12/22 07:52:04;;;;;;;17.40;9.17;;;3.70;99.90;;;;;;5058908;28;20124;-72
2022/12/22 07:54:29;;;;;;;17.15;9.68;;;3.80;99.90;;;;;;5052546;28;20457;-72
2022/12/22 07:56:55;;;;;;;13.82;7.68;;;3.90;99.90;;;;;;5063762;28;20028;-72
2022/12/22 07:59:21;;;;;;;13.80;8.93;;;3.90;99.90;;;;;;5038781;28;20365;-72
2022/12/22 08:01:47;;;;;;;17.05;11.13;;;4.10;99.90;;;;;;5034688;28;20104;-72
2022/12/22 08:04:13;;;;;;;23.67;11.73;;;4.20;99.90;;;;;;5036974;28;20026;-73
2022/12/22 08:06:39;;;;;;;25.02;14.88;;;4.10;99.90;;;;;;5038525;28;20715;-72
2022/12/22 08:09:06;;;;;;;19.55;12.30;;;4.10;99.90;;;;;;5037427;28;20108;-73
2022/12/22 08:11:33;;;;;;;17.48;11.55;;;4.20;99.90;;;;;;5036721;28;20120;-73
2022/12/22 08:13:58;;;;;;;22.23;12.52;;;4.10;99.90;;;;;;5031237;28;20033;-74
2022/12/22 08:16:24;;;;;;;17.63;11.27;;;4.10;99.90;;;;;;5047577;28;20098;-73
2022/12/22 08:18:50;;;;;;;23.25;11.20;;;4.20;99.90;;;;;;5048030;28;20021;-73
2022/12/22 08:21:16;;;;;;;17.48;10.52;;;4.20;99.90;;;;;;5038575;28;20105;-74
2022/12/22 08:23:42;;;;;;;19.73;11.05;;;4.20;99.90;;;;;;5038866;28;20021;-73
2022/12/22 08:26:09;;;;;;;16.83;10.73;;;4.20;99.90;;;;;;5046111;28;20037;-74
2022/12/22 08:28:39;;;;;;;21.27;12.82;;;4.40;99.90;;;;;;5046345;28;20556;-73
2022/12/22 08:31:06;;;;;;;18.48;10.25;;;4.50;99.90;;;;;;5045916;28;20418;-73
2022/12/22 08:33:31;;;;;;;16.50;10.20;;;4.40;99.90;;;;;;5044279;28;20047;-74
2022/12/22 08:35:58;;;;;;;15.88;9.90;;;4.40;99.90;;;;;;5045334;28;20026;-74
2022/12/22 08:38:24;;;;;;;15.73;8.68;;;4.30;99.90;;;;;;5047713;28;20607;-74
2022/12/22 08:40:49;;;;;;;17.35;9.57;;;4.30;99.90;;;;;;5046340;28;20033;-74
2022/12/22 08:43:17;;;;;;;14.35;10.15;;;4.40;99.90;;;;;;5046545;28;20044;-74
2022/12/22 08:45:42;;;;;;;18.77;12.10;;;4.30;99.90;;;;;;5061100;28;20051;-74
2022/12/22 08:48:09;;;;;;;21.85;12.75;;;4.30;99.90;;;;;;5045583;28;20087;-74
2022/12/22 08:50:35;;;;;;;18.75;11.68;;;4.30;99.90;;;;;;5032615;28;20067;-74
2022/12/22 08:53:06;;;;;;;21.60;10.95;;;4.40;99.90;;;;;;5031371;28;20661;-74
2022/12/22 08:55:32;;;;;;;17.38;10.63;;;4.50;99.90;;;;;;5026197;28;20025;-73
2022/12/22 08:57:57;;;;;;;16.85;11.20;;;4.60;99.90;;;;;;5023527;28;20104;-74
2022/12/22 09:00:24;;;;;;;24.98;12.85;;;4.70;99.90;;;;;;5023244;28;20063;-74
2022/12/22 09:02:49;;;;;;;23.95;14.50;;;4.60;99.90;;;;;;5031279;28;20041;-74
2022/12/22 09:05:15;;;;;;;27.30;14.95;;;4.40;99.90;;;;;;5025113;28;20044;-74
2022/12/22 09:07:41;;;;;;;21.83;13.15;;;4.40;99.90;;;;;;5028250;28;20033;-74
2022/12/22 09:10:08;;;;;;;22.40;13.95;;;4.50;99.90;;;;;;5023112;28;20064;-73
2022/12/22 09:12:35;;;;;;;23.73;14.88;;;4.40;99.90;;;;;;5027183;28;20029;-73
2022/12/22 09:15:00;;;;;;;24.55;13.38;;;4.30;99.90;;;;;;5032322;28;20161;-73
2022/12/22 09:17:26;;;;;;;20.52;13.25;;;4.30;99.90;;;;;;5034803;28;20030;-73
2022/12/22 09:19:52;;;;;;;21.10;12.85;;;4.40;99.90;;;;;;5027462;28;20065;-73
2022/12/22 09:22:17;;;;;;;29.60;16.05;;;4.60;99.90;;;;;;5028573;28;20517;-73
2022/12/22 09:24:43;;;;;;;40.67;22.75;;;4.70;99.90;;;;;;5028962;28;20475;-73
2022/12/22 09:27:09;;;;;;;33.45;19.02;;;4.80;99.90;;;;;;5026229;28;20090;-73
2022/12/22 09:29:36;;;;;;;26.05;15.30;;;4.80;99.90;;;;;;5025094;28;20495;-73
2022/12/22 09:32:02;;;;;;;30.40;15.88;;;4.80;99.90;;;;;;5033601;28;20029;-74
2022/12/22 09:34:28;;;;;;;26.20;14.00;;;4.70;99.90;;;;;;5028301;28;20114;-73
2022/12/22 09:36:54;;;;;;;21.55;12.20;;;4.70;99.90;;;;;;5024496;28;23673;-73
2022/12/22 09:39:19;;;;;;;19.27;10.90;;;4.90;99.90;;;;;;5030442;28;20044;-73
2022/12/22 09:41:51;;;;;;;19.98;10.88;;;5.00;99.90;;;;;;5007429;28;20025;-74
2022/12/22 09:44:27;;;;;;;22.65;12.65;;;5.10;99.90;;;;;;5026508;28;20148;-73
2022/12/22 09:46:59;;;;;;;31.40;19.70;;;5.10;99.90;;;;;;5026411;28;21096;-74
2022/12/22 09:49:25;;;;;;;65.72;34.25;;;5.10;99.90;;;;;;5034255;28;20407;-74
2022/12/22 09:51:57;;;;;;;59.17;31.63;;;5.10;99.90;;;;;;5025559;28;20120;-73
2022/12/22 09:54:24;;;;;;;37.10;22.92;;;5.10;99.90;;;;;;5034781;28;20120;-74
2022/12/22 09:56:50;;;;;;;31.33;17.48;;;5.20;99.90;;;;;;5024129;28;20072;-74
2022/12/22 09:59:18;;;;;;;20.75;14.40;;;5.20;99.90;;;;;;5034467;28;20786;-74
2022/12/22 10:02:24;;;;;;;18.58;11.52;;;5.30;99.90;;;;;;5039147;28;20041;-74
2022/12/22 10:05:14;;;;;;;19.17;12.13;;;5.20;99.90;;;;;;5033903;28;20076;-73
2022/12/22 10:07:41;;;;;;;20.48;10.95;;;5.20;99.90;;;;;;5035402;28;20051;-73
2022/12/22 10:10:27;;;;;;;17.83;11.18;;;5.20;99.90;;;;;;5038746;28;20063;-73
2022/12/22 10:13:01;;;;;;;22.20;14.07;;;5.20;99.90;;;;;;5026925;28;20033;-73
2022/12/22 10:15:37;;;;;;;25.50;14.85;;;5.30;99.90;;;;;;5035722;28;20037;-74
2022/12/22 10:18:16;;;;;;;27.70;12.10;;;5.30;99.90;;;;;;5027820;28;20025;-74
2022/12/22 10:20:46;;;;;;;17.02;11.07;;;5.10;99.90;;;;;;5032464;28;20029;-73
2022/12/22 10:23:27;;;;;;;17.85;12.00;;;4.90;99.90;;;;;;5027562;28;20029;-73
2022/12/22 10:25:56;;;;;;;17.75;10.38;;;4.80;99.90;;;;;;5031386;28;20033;-73
2022/12/22 10:28:29;;;;;;;18.85;10.93;;;4.80;99.90;;;;;;5028878;28;20083;-73
2022/12/22 10:31:13;;;;;;;18.35;10.68;;;4.80;99.90;;;;;;5033439;28;20102;-73
2022/12/22 10:33:40;;;;;;;19.88;11.35;;;4.90;99.90;;;;;;5027786;28;20669;-74
2022/12/22 10:36:06;;;;;;;21.42;11.20;;;4.90;99.90;;;;;;5033376;28;20082;-73
2022/12/22 10:38:35;;;;;;;17.88;11.10;;;5.00;99.90;;;;;;5027383;28;20510;-73
2022/12/22 10:41:17;;;;;;;20.23;11.18;;;4.90;99.90;;;;;;5030561;28;20460;-73
2022/12/22 10:43:52;;;;;;;21.20;10.95;;;5.10;99.90;;;;;;5031225;28;20471;-74
2022/12/22 10:46:27;;;;;;;18.42;11.07;;;5.10;99.90;;;;;;5033609;28;20037;-73
2022/12/22 10:49:06;;;;;;;16.30;10.48;;;5.00;99.90;;;;;;5033641;28;20214;-73
2022/12/22 10:51:32;;;;;;;18.60;10.65;;;5.00;99.90;;;;;;5034159;28;20037;-73
2022/12/22 10:53:58;;;;;;;18.63;9.73;;;4.90;99.90;;;;;;5034587;28;20037;-73
2022/12/22 10:56:25;;;;;;;18.83;11.15;;;4.90;99.90;;;;;;5029939;28;20044;-73
2022/12/22 10:58:54;;;;;;;20.42;10.65;;;4.90;99.90;;;;;;5030439;28;20037;-73
2022/12/22 11:01:26;;;;;;;21.63;11.38;;;4.90;99.90;;;;;;5029203;28;20471;-73
2022/12/22 11:03:52;;;;;;;19.27;10.43;;;4.90;99.90;;;;;;5036902;28;20032;-74
2022/12/22 11:06:18;;;;;;;21.15;11.25;;;5.00;99.90;;;;;;5030767;28;20033;-73
2022/12/22 11:08:44;;;;;;;19.67;11.55;;;5.10;99.90;;;;;;5031779;28;20036;-73
2022/12/22 11:11:33;;;;;;;21.17;11.25;;;5.20;99.90;;;;;;5023726;28;20036;-73
2022/12/22 11:14:08;;;;;;;19.17;10.52;;;5.20;99.90;;;;;;5032457;28;20033;-74
2022/12/22 11:16:40;;;;;;;20.58;11.50;;;5.40;99.90;;;;;;5026006;28;20499;-73
2022/12/22 11:19:27;;;;;;;22.90;11.00;;;5.40;99.90;;;;;;5027828;28;20552;-74
2022/12/22 11:22:04;;;;;;;20.40;11.63;;;5.40;99.90;;;;;;5027775;28;20029;-73
2022/12/22 11:24:47;;;;;;;18.02;10.32;;;5.40;99.90;;;;;;5031981;28;20051;-73
2022/12/22 11:27:51;;;;;;;18.08;10.48;;;5.40;99.90;;;;;;5035219;28;20033;-73
2022/12/22 11:30:26;;;;;;;20.17;10.68;;;5.40;99.90;;;;;;5010287;28;20033;-73
2022/12/22 11:33:15;;;;;;;19.00;10.18;;;5.50;99.90;;;;;;5030593;28;20037;-73
2022/12/22 11:35:54;;;;;;;17.48;10.77;;;5.40;99.90;;;;;;5030209;28;20035;-73
2022/12/22 11:38:44;;;;;;;22.40;11.25;;;5.30;99.90;;;;;;5025857;28;20060;-73
2022/12/22 11:41:12;;;;;;;14.32;10.10;;;5.50;99.90;;;;;;5033759;28;20025;-73
2022/12/22 11:44:02;;;;;;;17.25;11.00;;;5.60;99.90;;;;;;5034960;28;20589;-73
2022/12/22 11:47:00;;;;;;;16.15;10.25;;;5.60;99.90;;;;;;5028213;28;20036;-74
2022/12/22 11:49:45;;;;;;;17.27;10.20;;;5.80;99.90;;;;;;5038138;28;20394;-73
2022/12/22 11:52:10;;;;;;;16.95;10.88;;;6.00;99.90;;;;;;5032944;28;20037;-73
2022/12/22 11:55:24;;;;;;;21.80;11.57;;;6.20;99.90;;;;;;5036586;28;20554;-73
2022/12/22 11:58:11;;;;;;;22.52;13.02;;;6.20;99.90;;;;;;5022938;28;20045;-73
2022/12/22 12:00:47;;;;;;;19.30;12.77;;;5.90;99.90;;;;;;5029352;28;20107;-73
2022/12/22 12:03:55;;;;;;;23.90;11.88;;;5.80;99.90;;;;;;5040748;28;20049;-73
2022/12/22 12:06:45;;;;;;;18.90;11.43;;;5.60;99.90;;;;;;5027829;28;20463;-73
2022/12/22 12:09:36;;;;;;;22.75;12.02;;;5.70;99.90;;;;;;5031243;28;20060;-73
2022/12/22 12:12:14;;;;;;;20.40;12.27;;;5.70;99.90;;;;;;5035356;28;20138;-73
2022/12/22 12:15:05;;;;;;;27.65;15.25;;;5.70;99.90;;;;;;5037467;28;20668;-73
2022/12/22 12:18:08;;;;;;;21.85;14.02;;;5.80;99.90;;;;;;5027028;28;20033;-74
2022/12/22 12:20:44;;;;;;;22.20;12.30;;;5.90;99.90;;;;;;5025252;28;20465;-73
2022/12/22 12:23:58;;;;;;;18.00;11.80;;;5.70;99.90;;;;;;5040097;28;20028;-73
2022/12/22 12:26:24;;;;;;;20.50;11.82;;;5.60;99.90;;;;;;4994325;28;20055;-73
2022/12/22 12:29:26;;;;;;;23.63;12.15;;;5.60;99.90;;;;;;5034855;28;20038;-73
2022/12/22 12:31:57;;;;;;;29.35;14.90;;;5.70;99.90;;;;;;5035279;28;20036;-73
2022/12/22 12:34:24;;;;;;;24.98;13.77;;;6.10;99.90;;;;;;5034587;28;20104;-74
2022/12/22 12:37:12;;;;;;;22.65;13.52;;;6.20;99.90;;;;;;5032863;28;20037;-74
2022/12/22 12:39:38;;;;;;;20.17;13.10;;;6.30;99.90;;;;;;5032350;28;20033;-73
2022/12/22 12:42:23;;;;;;;19.85;12.60;;;6.10;99.90;;;;;;5040079;28;20086;-73
2022/12/22 12:44:51;;;;;;;20.70;11.95;;;5.80;99.90;;;;;;5043477;28;20086;-73
2022/12/22 12:47:30;;;;;;;18.83;12.45;;;5.80;99.90;;;;;;5035077;28;20485;-72
2022/12/22 12:50:21;;;;;;;14.98;10.55;;;5.80;99.90;;;;;;5040093;28;20479;-73
2022/12/22 12:52:48;;;;;;;17.80;11.75;;;5.90;99.90;;;;;;5039032;28;20033;-72
2022/12/22 12:55:29;;;;;;;23.73;12.25;;;6.10;99.90;;;;;;5028023;28;20206;-71
2022/12/22 12:57:56;;;;;;;19.50;12.10;;;6.00;99.90;;;;;;5030536;28;20036;-72
2022/12/22 13:00:34;;;;;;;20.17;11.73;;;5.90;99.90;;;;;;5038308;28;20039;-72
2022/12/22 13:03:11;;;;;;;19.88;12.07;;;5.90;99.90;;;;;;5028087;28;20657;-72
2022/12/22 13:05:55;;;;;;;20.58;12.07;;;5.90;99.90;;;;;;5029408;28;20375;-72
2022/12/22 13:08:30;;;;;;;18.67;10.40;;;6.00;99.90;;;;;;5028148;28;20107;-72
2022/12/22 13:10:56;;;;;;;18.70;10.88;;;5.90;99.90;;;;;;5025735;28;20037;-72
2022/12/22 13:13:22;;;;;;;21.25;10.88;;;6.00;99.90;;;;;;5030989;28;20055;-72
2022/12/22 13:16:00;;;;;;;17.00;11.55;;;6.10;99.90;;;;;;5032604;28;20038;-71
2022/12/22 13:18:28;;;;;;;18.92;11.23;;;6.30;99.90;;;;;;5027240;28;20036;-71
2022/12/22 13:20:58;;;;;;;19.85;10.90;;;6.40;99.90;;;;;;5034720;28;20029;-72
2022/12/22 13:23:29;;;;;;;23.27;10.82;;;6.40;99.90;;;;;;5025890;28;20185;-72
2022/12/22 13:26:01;;;;;;;14.93;10.07;;;6.60;99.90;;;;;;5032253;28;20026;-72
2022/12/22 13:28:28;;;;;;;16.08;10.07;;;6.50;99.90;;;;;;5031579;28;20040;-72
2022/12/22 13:31:04;;;;;;;15.88;9.68;;;6.50;99.90;;;;;;5028694;28;20025;-72
2022/12/22 13:33:35;;;;;;;19.27;10.75;;;6.50;99.90;;;;;;5038974;28;20641;-73
2022/12/22 13:36:03;;;;;;;18.58;11.05;;;6.40;99.90;;;;;;5030475;28;20125;-72
2022/12/22 13:38:34;;;;;;;16.13;10.48;;;6.50;99.90;;;;;;5022231;28;20108;-73
2022/12/22 13:41:11;;;;;;;14.55;10.48;;;6.60;99.90;;;;;;5023048;28;20029;-73
2022/12/22 13:43:37;;;;;;;18.65;9.57;;;6.60;99.90;;;;;;5037123;28;20097;-73
2022/12/22 13:46:04;;;;;;;14.48;9.70;;;6.60;99.90;;;;;;5016046;28;20029;-73
2022/12/22 13:48:47;;;;;;;18.98;10.68;;;6.60;99.90;;;;;;5026352;28;20780;-73
2022/12/22 13:51:28;;;;;;;22.20;11.52;;;6.60;99.90;;;;;;5023309;28;20043;-73
2022/12/22 13:53:57;;;;;;;18.92;10.30;;;6.60;99.90;;;;;;5032338;28;20084;-73
2022/12/22 13:56:26;;;;;;;16.67;9.75;;;6.60;99.90;;;;;;5037382;28;20113;-73
2022/12/22 13:58:58;;;;;;;15.05;9.77;;;6.60;99.90;;;;;;5035864;28;20024;-73
2022/12/22 14:01:24;;;;;;;15.50;10.15;;;6.60;99.90;;;;;;5030101;28;20025;-73
2022/12/22 14:04:02;;;;;;;20.63;12.40;;;6.50;99.90;;;;;;5029135;28;20151;-73
2022/12/22 14:06:31;;;;;;;23.50;10.48;;;6.60;99.90;;;;;;5026317;28;20124;-74
2022/12/22 14:09:17;;;;;;;17.90;9.93;;;6.70;99.90;;;;;;5029906;28;20017;-73
2022/12/22 14:11:47;;;;;;;20.83;10.98;;;6.70;99.90;;;;;;5030445;28;20518;-73
2022/12/22 14:14:17;;;;;;;16.90;9.23;;;6.60;99.90;;;;;;5014894;28;20043;-73
2022/12/22 14:16:45;;;;;;;16.33;10.05;;;6.50;99.90;;;;;;5029138;28;20034;-73
2022/12/22 14:19:13;;;;;;;17.40;10.45;;;6.60;99.90;;;;;;5025723;28;20021;-72
2022/12/22 14:21:41;;;;;;;17.20;11.15;;;6.60;99.90;;;;;;5028571;28;20049;-73
2022/12/22 14:24:14;;;;;;;15.07;10.10;;;6.60;99.90;;;;;;5035380;28;20040;-73
2022/12/22 14:26:40;;;;;;;18.15;10.90;;;6.60;99.90;;;;;;5031796;28;20074;-73
2022/12/22 14:29:16;;;;;;;18.40;10.27;;;6.50;99.90;;;;;;5030374;28;20042;-73
2022/12/22 14:32:27;;;;;;;16.30;10.10;;;6.50;99.90;;;;;;5030350;28;20038;-73
2022/12/22 14:34:53;;;;;;;17.15;10.52;;;6.40;99.90;;;;;;5020168;28;20068;-73
2022/12/22 14:37:23;;;;;;;19.25;12.73;;;6.30;99.90;;;;;;5022216;28;20044;-73
2022/12/22 14:39:54;;;;;;;20.63;11.32;;;6.20;99.90;;;;;;5035397;28;20086;-73
2022/12/22 14:42:20;;;;;;;18.60;11.60;;;6.20;99.90;;;;;;5032050;28;20030;-73
2022/12/22 14:44:47;;;;;;;22.27;12.45;;;6.10;99.90;;;;;;5030705;28;20033;-73
2022/12/22 14:47:16;;;;;;;18.40;9.80;;;6.10;99.90;;;;;;5029947;28;20127;-73
2022/12/22 14:50:12;;;;;;;16.98;8.65;;;6.30;99.90;;;;;;5022137;28;20148;-74
2022/12/22 14:53:11;;;;;;;10.90;6.53;;;6.10;99.90;;;;;;5022228;28;20041;-73
2022/12/22 14:55:41;;;;;;;11.50;7.10;;;5.90;99.90;;;;;;4989409;28;20141;-72
2022/12/22 14:58:16;;;;;;;16.35;8.20;;;5.90;99.90;;;;;;5026888;28;20033;-72
2022/12/22 15:00:46;;;;;;;;;;;5.90;99.90;;;;;;5028060;28;20029;-73
2022/12/22 15:03:24;;;;;;;13.45;7.43;;;5.80;99.90;;;;;;5028194;28;19912;-72
2022/12/22 15:05:50;;;;;;;12.00;7.38;;;5.80;99.90;;;;;;5027381;28;20040;-72
2022/12/22 15:08:40;;;;;;;15.68;9.70;;;5.60;99.90;;;;;;5029325;28;20114;-72
2022/12/22 15:11:12;;;;;;;13.80;9.65;;;5.70;99.90;;;;;;5014812;28;20033;-71
2022/12/22 15:13:38;;;;;;;14.23;8.77;;;5.70;99.90;;;;;;5020856;28;20041;-72
2022/12/22 15:16:04;;;;;;;15.20;10.07;;;5.60;99.90;;;;;;5029398;28;20054;-72
2022/12/22 15:18:31;;;;;;;18.55;10.70;;;5.40;99.90;;;;;;5022363;28;20112;-72
2022/12/22 15:20:57;;;;;;;19.55;11.00;;;5.30;99.90;;;;;;5024115;28;20062;-71
2022/12/22 15:23:23;;;;;;;17.17;10.23;;;5.20;99.90;;;;;;5024857;28;20426;-72
2022/12/22 15:25:48;;;;;;;17.90;10.55;;;5.10;99.90;;;;;;5032225;28;20040;-72
2022/12/22 15:28:14;;;;;;;12.75;8.45;;;5.10;99.90;;;;;;5034089;28;20369;-72
2022/12/22 15:30:40;;;;;;;10.15;7.07;;;5.10;99.90;;;;;;5033285;28;20028;-73
2022/12/22 15:33:12;;;;;;;11.73;6.82;;;4.90;99.90;;;;;;5034757;28;20041;-73
2022/12/22 15:35:39;;;;;;;12.70;6.85;;;5.00;99.90;;;;;;5032047;28;20041;-74
2022/12/22 15:38:09;;;;;;;10.40;6.38;;;5.00;99.90;;;;;;5024047;28;20030;-74
2022/12/22 15:40:36;;;;;;;13.82;7.97;;;5.70;99.90;;;;;;5031201;28;20032;-74
2022/12/22 15:43:01;;;;;;;13.88;7.40;;;5.20;99.90;;;;;;5025890;28;20407;-75
2022/12/22 15:45:28;;;;;;;15.38;8.82;;;5.20;99.90;;;;;;5024152;28;20044;-74
2022/12/22 15:47:54;;;;;;;12.43;7.40;;;5.30;99.90;;;;;;5028247;28;20183;-74
2022/12/22 15:50:30;;;;;;;11.82;7.93;;;5.00;99.90;;;;;;5023834;28;20187;-74
2022/12/22 15:52:57;;;;;;;14.63;7.95;;;5.00;99.90;;;;;;5025713;28;20037;-74
2022/12/22 15:55:23;;;;;;;10.70;6.82;;;5.00;99.90;;;;;;5029043;28;20545;-74
2022/12/22 15:57:52;;;;;;;15.25;7.35;;;5.00;99.90;;;;;;5025919;28;20029;-74
2022/12/22 16:00:19;;;;;;;13.70;5.45;;;5.20;99.90;;;;;;5029616;28;20033;-74
2022/12/22 16:02:45;;;;;;;9.65;6.35;;;5.00;99.90;;;;;;5020795;28;20100;-74
2022/12/22 16:05:12;;;;;;;11.30;6.22;;;5.00;99.90;;;;;;5025464;28;20124;-74
2022/12/22 16:07:39;;;;;;;8.80;5.40;;;5.00;99.90;;;;;;5032022;28;20029;-74
2022/12/22 16:10:15;;;;;;;11.88;5.78;;;5.00;99.90;;;;;;5021914;28;20022;-74
2022/12/22 16:12:42;;;;;;;9.45;5.75;;;5.10;99.90;;;;;;5029697;28;20119;-74
2022/12/22 16:15:12;;;;;;;12.93;8.18;;;5.00;99.90;;;;;;5029233;28;20605;-74
2022/12/22 16:17:38;;;;;;;8.25;5.28;;;5.10;99.90;;;;;;5020049;28;20092;-74
2022/12/22 16:20:05;;;;;;;11.27;5.30;;;5.00;99.90;;;;;;5027903;28;20515;-74
2022/12/22 16:22:34;;;;;;;10.23;6.82;;;4.80;99.90;;;;;;5024254;28;20061;-74
2022/12/22 16:25:04;;;;;;;11.05;5.40;;;5.00;99.90;;;;;;5028932;28;20514;-74
2022/12/22 16:27:30;;;;;;;9.38;4.88;;;4.90;99.90;;;;;;5027354;28;20036;-75
2022/12/22 16:29:57;;;;;;;10.40;5.93;;;5.00;99.90;;;;;;5030603;28;20039;-74
2022/12/22 16:32:29;;;;;;;11.40;6.28;;;4.90;99.90;;;;;;5033610;28;20033;-73
2022/12/22 16:35:16;;;;;;;13.15;6.65;;;5.00;99.90;;;;;;5037022;28;20480;-74
2022/12/22 16:37:41;;;;;;;10.85;5.32;;;5.10;99.90;;;;;;5040721;28;20192;-73
2022/12/22 16:40:08;;;;;;;8.98;4.63;;;4.90;99.90;;;;;;5043689;28;20751;-74